Terminal Aerodrome Forecast
Issued by NWS

Home | Current Version | Previous Version | Graphics & Text | Print | Product List | Glossary On
Versions: 1 2 3 4 5 6 7 8 9 10 11 12 13 14 15 16 17 18 19 20
000
FTUS43 KMPX 221700
TAFRNH
TAF
KRNH 221740Z 2218/2318 16012G20KT P6SM BKN050
     FM222200 16014G21KT P6SM SCT090 BKN200
     FM230200 16011KT P6SM SCT040 BKN080
     FM230700 17008KT 5SM -SHRA BR BKN020 OVC040
     FM231000 18004KT 4SM BR OVC020
     FM231600 23005KT P6SM FEW020=

USA.gov is the U.S. government's official web portal to all federal, state and local government web resources and services.